Terminal Aerodrome Forecast
Issued by NWS

Home | Current Version | Previous Version | Text Only | Print | Product List | Glossary On
Versions: 1 2 3 4 5 6 7 8 9 10 11 12 13 14 15 16 17 18 19
000
FTUS45 KABQ 041145
TAFFMN
TAF
KFMN 041145Z 0412/0512 09006KT P6SM BKN200
     FM041900 16007KT P6SM SCT080
     FM050000 23011KT P6SM VCSH BKN080
      TEMPO 0502/0506 -TSRA OVC040CB
     FM050700 11007KT P6SM VCSH OVC040=

USA.gov is the U.S. government's official web portal to all federal, state and local government web resources and services.